Terminal Aerodrome Forecast
Issued by NWS

Home | Current Version | Previous Version | Text Only | Print | Product List | Glossary On
Versions: 1 2 3 4 5 6 7 8 9 10 11 12 13 14 15 16 17 18 19 20 21
000
FTUS44 KLUB 281243 AAB
TAFCDS
TAF AMD
KCDS 281243Z 2813/2912 19009KT P6SM SCT050 SCT200
     FM281400 18010KT P6SM BKN030
     FM281800 16014KT P6SM SCT030 BKN150
     FM282300 VRB10G20KT 6SM -TSRA BKN020CB OVC070
     FM290800 10007KT P6SM FEW005 SCT040 BKN150=

USA.gov is the U.S. government's official web portal to all federal, state and local government web resources and services.